sensor_id;sensor_type;location;lat;lon;timestamp;pressure;altitude;pressure_sealevel;temperature;humidity
37020;BME280;22932;52.442;16.896;2022-09-30T10:06:53;100150.99;;;16.57;56.60
37020;BME280;22932;52.442;16.896;2022-09-30T10:09:25;100158.08;;;16.41;56.45
37020;BME280;22932;52.442;16.896;2022-09-30T10:12:22;100156.95;;;16.27;56.63
37020;BME280;22932;52.442;16.896;2022-09-30T10:14:58;100151.05;;;16.15;57.02
37020;BME280;22932;52.442;16.896;2022-09-30T10:17:29;100145.08;;;16.09;57.46
37020;BME280;22932;52.442;16.896;2022-09-30T10:20:03;100150.53;;;16.17;57.96
37020;BME280;22932;52.442;16.896;2022-09-30T10:22:34;100157.21;;;16.20;57.84
37020;BME280;22932;52.442;16.896;2022-09-30T10:25:24;100150.35;;;16.18;57.25
37020;BME280;22932;52.442;16.896;2022-09-30T10:27:54;100152.52;;;16.18;57.20
37020;BME280;22932;52.442;16.896;2022-09-30T10:30:34;100149.63;;;16.15;56.76
37020;BME280;22932;52.442;16.896;2022-09-30T10:33:13;100150.51;;;16.06;56.65
37020;BME280;22932;52.442;16.896;2022-09-30T10:35:55;100147.85;;;16.06;56.78
37020;BME280;22932;52.442;16.896;2022-09-30T10:38:26;100155.04;;;16.07;56.48
37020;BME280;22932;52.442;16.896;2022-09-30T10:40:57;100158.98;;;16.08;56.38
37020;BME280;22932;52.442;16.896;2022-09-30T10:43:29;100161.81;;;16.15;56.44
37020;BME280;22932;52.442;16.896;2022-09-30T10:46:00;100165.34;;;16.22;56.13
37020;BME280;22932;52.442;16.896;2022-09-30T10:48:34;100163.65;;;16.24;56.63
37020;BME280;22932;52.442;16.896;2022-09-30T10:51:04;100164.36;;;16.26;56.60
37020;BME280;22932;52.442;16.896;2022-09-30T10:53:36;100163.06;;;16.21;56.47
37020;BME280;22932;52.442;16.896;2022-09-30T10:56:10;100163.71;;;16.18;56.08
37020;BME280;22932;52.442;16.896;2022-09-30T10:58:44;100162.71;;;16.09;56.21
37020;BME280;22932;52.442;16.896;2022-09-30T11:01:22;100160.60;;;16.04;56.49
37020;BME280;22932;52.442;16.896;2022-09-30T11:04:02;100160.04;;;16.02;56.62
37020;BME280;22932;52.442;16.896;2022-09-30T11:06:38;100160.58;;;16.02;56.56
37020;BME280;22932;52.442;16.896;2022-09-30T11:09:11;100160.85;;;16.08;56.50
37020;BME280;22932;52.442;16.896;2022-09-30T11:11:47;100163.18;;;16.14;56.62
37020;BME280;22932;52.442;16.896;2022-09-30T11:14:28;100155.25;;;16.18;56.42
37020;BME280;22932;52.442;16.896;2022-09-30T11:17:08;100156.90;;;16.21;56.23
37020;BME280;22932;52.442;16.896;2022-09-30T11:19:42;100150.85;;;16.28;56.17
37020;BME280;22932;52.442;16.896;2022-09-30T11:22:27;100148.23;;;16.46;56.43
37020;BME280;22932;52.442;16.896;2022-09-30T11:24:57;100147.61;;;16.73;56.13
37020;BME280;22932;52.442;16.896;2022-09-30T11:27:36;100149.45;;;16.97;55.26
37020;BME280;22932;52.442;16.896;2022-09-30T11:30:12;100141.65;;;17.19;55.07
37020;BME280;22932;52.442;16.896;2022-09-30T11:33:02;100143.85;;;17.36;54.46
37020;BME280;22932;52.442;16.896;2022-09-30T11:35:53;100139.29;;;17.51;54.05
37020;BME280;22932;52.442;16.896;2022-09-30T11:38:37;100142.57;;;17.62;53.23
37020;BME280;22932;52.442;16.896;2022-09-30T11:41:15;100139.34;;;17.71;52.66
37020;BME280;22932;52.442;16.896;2022-09-30T11:43:55;100134.89;;;17.80;52.96
37020;BME280;22932;52.442;16.896;2022-09-30T11:46:40;100134.30;;;17.92;52.41
37020;BME280;22932;52.442;16.896;2022-09-30T11:49:25;100138.77;;;17.78;51.63
37020;BME280;22932;52.442;16.896;2022-09-30T11:52:06;100140.50;;;17.54;51.12
37020;BME280;22932;52.442;16.896;2022-09-30T11:54:54;100142.49;;;17.32;51.23
37020;BME280;22932;52.442;16.896;2022-09-30T11:57:33;100140.75;;;17.30;51.37
37020;BME280;22932;52.442;16.896;2022-09-30T12:00:11;100132.70;;;17.32;51.46
37020;BME280;22932;52.442;16.896;2022-09-30T12:02:44;100130.64;;;17.38;51.53
37020;BME280;22932;52.442;16.896;2022-09-30T12:05:19;100132.70;;;17.50;51.58
37020;BME280;22932;52.442;16.896;2022-09-30T12:07:53;100138.00;;;17.57;51.21
37020;BME280;22932;52.442;16.896;2022-09-30T12:10:30;100131.07;;;17.60;50.88
37020;BME280;22932;52.442;16.896;2022-09-30T12:13:05;100128.42;;;17.45;50.73
37020;BME280;22932;52.442;16.896;2022-09-30T12:15:39;100134.52;;;17.25;50.57
37020;BME280;22932;52.442;16.896;2022-09-30T12:18:13;100133.41;;;17.09;50.93
37020;BME280;22932;52.442;16.896;2022-09-30T12:20:48;100128.02;;;17.04;51.42
37020;BME280;22932;52.442;16.896;2022-09-30T12:23:20;100122.64;;;17.10;51.85
37020;BME280;22932;52.442;16.896;2022-09-30T12:25:58;100123.95;;;17.21;51.85
37020;BME280;22932;52.442;16.896;2022-09-30T12:28:32;100125.55;;;17.21;51.02
37020;BME280;22932;52.442;16.896;2022-09-30T12:31:44;100122.69;;;17.04;50.82
37020;BME280;22932;52.442;16.896;2022-09-30T12:34:30;100129.83;;;16.92;50.94
37020;BME280;22932;52.442;16.896;2022-09-30T12:37:23;100130.73;;;16.77;51.00
37020;BME280;22932;52.442;16.896;2022-09-30T12:40:23;100129.55;;;16.58;51.25
37020;BME280;22932;52.442;16.896;2022-09-30T12:43:27;100129.26;;;16.41;51.65
37020;BME280;22932;52.442;16.896;2022-09-30T12:46:13;100129.47;;;16.33;52.16
37020;BME280;22932;52.442;16.896;2022-09-30T12:48:46;100130.48;;;16.28;52.13
37020;BME280;22932;52.442;16.896;2022-09-30T12:51:26;100129.83;;;16.27;52.23
37020;BME280;22932;52.442;16.896;2022-09-30T12:54:01;100127.84;;;16.29;52.19
37020;BME280;22932;52.442;16.896;2022-09-30T12:56:34;100128.25;;;16.23;52.48
37020;BME280;22932;52.442;16.896;2022-09-30T12:59:06;100126.45;;;16.20;52.18
37020;BME280;22932;52.442;16.896;2022-09-30T13:01:38;100125.50;;;16.16;52.21
37020;BME280;22932;52.442;16.896;2022-09-30T13:04:21;100125.70;;;16.12;52.24
37020;BME280;22932;52.442;16.896;2022-09-30T13:07:15;100128.02;;;16.04;52.42
37020;BME280;22932;52.442;16.896;2022-09-30T13:09:59;100127.72;;;15.97;52.65
37020;BME280;22932;52.442;16.896;2022-09-30T13:12:41;100126.70;;;15.97;52.96
37020;BME280;22932;52.442;16.896;2022-09-30T13:15:39;100128.93;;;16.12;53.14
37020;BME280;22932;52.442;16.896;2022-09-30T13:21:22;100137.27;;;16.26;52.11
37020;BME280;22932;52.442;16.896;2022-09-30T13:23:54;100136.24;;;16.18;52.00
37020;BME280;22932;52.442;16.896;2022-09-30T13:26:37;100137.17;;;16.09;52.01
37020;BME280;22932;52.442;16.896;2022-09-30T13:32:31;100138.08;;;16.12;52.68
37020;BME280;22932;52.442;16.896;2022-09-30T13:35:01;100137.80;;;16.12;52.77
37020;BME280;22932;52.442;16.896;2022-09-30T13:38:14;100139.86;;;16.06;52.61
37020;BME280;22932;52.442;16.896;2022-09-30T13:40:47;100143.77;;;15.95;52.77
37020;BME280;22932;52.442;16.896;2022-09-30T13:43:20;100148.09;;;15.87;52.91
37020;BME280;22932;52.442;16.896;2022-09-30T13:45:54;100147.74;;;15.77;53.16
37020;BME280;22932;52.442;16.896;2022-09-30T13:48:27;100141.44;;;15.68;53.43
37020;BME280;22932;52.442;16.896;2022-09-30T13:50:59;100142.60;;;15.62;53.79
37020;BME280;22932;52.442;16.896;2022-09-30T13:53:35;100143.08;;;15.63;53.89
37020;BME280;22932;52.442;16.896;2022-09-30T13:56:08;100138.70;;;15.66;53.84
37020;BME280;22932;52.442;16.896;2022-09-30T13:58:57;100138.00;;;15.69;53.81
37020;BME280;22932;52.442;16.896;2022-09-30T14:01:46;100137.23;;;15.71;53.82
37020;BME280;22932;52.442;16.896;2022-09-30T14:04:43;100146.09;;;15.71;53.79
37020;BME280;22932;52.442;16.896;2022-09-30T14:07:27;100145.03;;;15.66;53.50
37020;BME280;22932;52.442;16.896;2022-09-30T14:10:15;100145.40;;;15.62;53.70
37020;BME280;22932;52.442;16.896;2022-09-30T14:12:58;100145.02;;;15.57;53.82
37020;BME280;22932;52.442;16.896;2022-09-30T14:15:47;100144.37;;;15.51;53.78
37020;BME280;22932;52.442;16.896;2022-09-30T14:18:39;100142.57;;;15.45;54.02
37020;BME280;22932;52.442;16.896;2022-09-30T14:21:31;100148.52;;;15.41;54.15
37020;BME280;22932;52.442;16.896;2022-09-30T14:24:10;100151.70;;;15.37;54.42
37020;BME280;22932;52.442;16.896;2022-09-30T14:26:53;100151.88;;;15.32;54.58
37020;BME280;22932;52.442;16.896;2022-09-30T14:29:34;100152.17;;;15.26;54.78
37020;BME280;22932;52.442;16.896;2022-09-30T14:32:12;100152.20;;;15.22;54.95
37020;BME280;22932;52.442;16.896;2022-09-30T14:34:42;100149.05;;;15.17;55.09
37020;BME280;22932;52.442;16.896;2022-09-30T14:37:20;100147.17;;;15.13;55.33
37020;BME280;22932;52.442;16.896;2022-09-30T14:39:50;100145.45;;;15.07;55.61
37020;BME280;22932;52.442;16.896;2022-09-30T14:42:24;100145.49;;;15.04;55.70
37020;BME280;22932;52.442;16.896;2022-09-30T14:44:58;100146.25;;;15.00;55.83
37020;BME280;22932;52.442;16.896;2022-09-30T14:47:33;100144.52;;;15.00;56.12
37020;BME280;22932;52.442;16.896;2022-09-30T14:50:09;100143.30;;;15.01;56.09
37020;BME280;22932;52.442;16.896;2022-09-30T14:52:43;100142.64;;;15.00;56.16
37020;BME280;22932;52.442;16.896;2022-09-30T14:55:29;100146.18;;;15.00;56.24
37020;BME280;22932;52.442;16.896;2022-09-30T14:58:18;100145.59;;;14.99;56.11
37020;BME280;22932;52.442;16.896;2022-09-30T15:00:57;100146.48;;;15.02;56.25
37020;BME280;22932;52.442;16.896;2022-09-30T15:03:29;100146.31;;;15.06;56.31
37020;BME280;22932;52.442;16.896;2022-09-30T15:06:00;100149.05;;;15.11;56.30
37020;BME280;22932;52.442;16.896;2022-09-30T15:08:30;100156.10;;;15.15;56.27
37020;BME280;22932;52.442;16.896;2022-09-30T15:11:00;100157.35;;;15.16;56.23
37020;BME280;22932;52.442;16.896;2022-09-30T15:13:30;100156.13;;;15.16;56.09
37020;BME280;22932;52.442;16.896;2022-09-30T15:16:01;100157.45;;;15.15;55.65
37020;BME280;22932;52.442;16.896;2022-09-30T15:18:41;100155.89;;;15.15;55.18
37020;BME280;22932;52.442;16.896;2022-09-30T15:21:13;100158.48;;;15.12;55.23
37020;BME280;22932;52.442;16.896;2022-09-30T15:23:45;100163.69;;;15.11;55.23
37020;BME280;22932;52.442;16.896;2022-09-30T15:26:16;100166.05;;;15.10;55.40
37020;BME280;22932;52.442;16.896;2022-09-30T15:28:49;100167.89;;;15.08;55.41
37020;BME280;22932;52.442;16.896;2022-09-30T15:31:23;100164.05;;;15.05;55.36
37020;BME280;22932;52.442;16.896;2022-09-30T15:34:11;100171.38;;;15.03;55.48
37020;BME280;22932;52.442;16.896;2022-09-30T15:36:43;100174.11;;;15.01;55.63
37020;BME280;22932;52.442;16.896;2022-09-30T15:39:23;100179.83;;;14.99;55.71
37020;BME280;22932;52.442;16.896;2022-09-30T15:42:13;100182.95;;;14.95;55.89
37020;BME280;22932;52.442;16.896;2022-09-30T15:44:55;100186.36;;;14.91;55.95
37020;BME280;22932;52.442;16.896;2022-09-30T15:47:24;100186.82;;;14.87;56.05
37020;BME280;22932;52.442;16.896;2022-09-30T15:49:54;100188.73;;;14.82;56.27
37020;BME280;22932;52.442;16.896;2022-09-30T15:52:36;100190.58;;;14.77;56.48
37020;BME280;22932;52.442;16.896;2022-09-30T15:55:36;100191.91;;;14.72;56.54
37020;BME280;22932;52.442;16.896;2022-09-30T15:58:32;100190.29;;;14.65;56.61
37020;BME280;22932;52.442;16.896;2022-09-30T16:01:18;100192.64;;;14.59;56.80
37020;BME280;22932;52.442;16.896;2022-09-30T16:03:50;100189.75;;;14.54;56.72
37020;BME280;22932;52.442;16.896;2022-09-30T16:06:25;100191.66;;;14.50;56.94
37020;BME280;22932;52.442;16.896;2022-09-30T16:08:58;100192.75;;;14.45;57.03
37020;BME280;22932;52.442;16.896;2022-09-30T16:11:31;100196.68;;;14.42;57.09
37020;BME280;22932;52.442;16.896;2022-09-30T23:07:22;100227.22;;;9.87;73.56
37020;BME280;22932;52.442;16.896;2022-09-30T23:09:51;100228.74;;;9.86;73.67
37020;BME280;22932;52.442;16.896;2022-09-30T23:12:20;100223.64;;;9.85;73.84
37020;BME280;22932;52.442;16.896;2022-09-30T23:14:50;100224.04;;;9.84;73.91
37020;BME280;22932;52.442;16.896;2022-09-30T23:17:20;100223.38;;;9.84;74.02
37020;BME280;22932;52.442;16.896;2022-09-30T23:19:49;100228.26;;;9.83;74.05
37020;BME280;22932;52.442;16.896;2022-09-30T23:22:19;100226.08;;;9.81;74.04
37020;BME280;22932;52.442;16.896;2022-09-30T23:24:48;100223.56;;;9.79;74.13
37020;BME280;22932;52.442;16.896;2022-09-30T23:27:17;100221.64;;;9.77;74.27
37020;BME280;22932;52.442;16.896;2022-09-30T23:29:47;100220.55;;;9.75;74.31
37020;BME280;22932;52.442;16.896;2022-09-30T23:32:16;100219.55;;;9.72;74.43
37020;BME280;22932;52.442;16.896;2022-09-30T23:34:45;100214.55;;;9.70;74.50
37020;BME280;22932;52.442;16.896;2022-09-30T23:37:14;100216.05;;;9.67;74.64
37020;BME280;22932;52.442;16.896;2022-09-30T23:39:44;100219.59;;;9.64;74.69
37020;BME280;22932;52.442;16.896;2022-09-30T23:42:13;100222.96;;;9.62;74.80
37020;BME280;22932;52.442;16.896;2022-09-30T23:44:42;100220.75;;;9.61;74.85
37020;BME280;22932;52.442;16.896;2022-09-30T23:47:11;100220.72;;;9.59;75.05
37020;BME280;22932;52.442;16.896;2022-09-30T23:49:46;100217.08;;;9.58;75.12
37020;BME280;22932;52.442;16.896;2022-09-30T23:52:17;100215.38;;;9.55;75.00
37020;BME280;22932;52.442;16.896;2022-09-30T23:54:46;100219.71;;;9.53;75.21
37020;BME280;22932;52.442;16.896;2022-09-30T23:57:15;100215.31;;;9.52;75.39
37020;BME280;22932;52.442;16.896;2022-09-30T23:59:45;100216.69;;;9.50;75.52
